createdAt,value
2019-02-22T00:01:00.887Z,31.27
2019-02-22T00:03:48.943Z,26.90
2019-02-22T00:06:36.063Z,26.20
2019-02-22T00:09:23.442Z,21.07
2019-02-22T00:12:11.134Z,24.50
2019-02-22T00:14:58.510Z,23.03
2019-02-22T00:17:45.691Z,25.50
2019-02-22T00:20:32.996Z,25.07
2019-02-22T00:23:20.454Z,22.00
2019-02-22T00:26:07.885Z,24.17
2019-02-22T00:28:55.613Z,26.97
2019-02-22T00:31:43.047Z,25.10
2019-02-22T00:34:30.171Z,22.77
2019-02-22T00:37:17.852Z,24.40
2019-02-22T00:40:05.403Z,25.43
2019-02-22T00:42:52.967Z,25.03
2019-02-22T00:45:40.526Z,25.07
2019-02-22T00:48:27.562Z,25.57
2019-02-22T00:51:14.811Z,28.23
2019-02-22T00:54:02.241Z,23.10
2019-02-22T00:56:49.408Z,23.87
2019-02-22T00:59:37.204Z,26.17
2019-02-22T01:02:25.251Z,20.43
2019-02-22T01:05:13.097Z,24.77
2019-02-22T01:08:00.399Z,20.60
2019-02-22T01:10:47.924Z,22.30
2019-02-22T01:13:35.228Z,22.97
2019-02-22T01:16:22.847Z,21.43
2019-02-22T01:19:10.396Z,22.50
2019-02-22T01:21:57.962Z,23.20
2019-02-22T01:24:45.855Z,21.87
2019-02-22T01:27:33.000Z,24.53
2019-02-22T01:30:20.914Z,22.67
2019-02-22T01:33:08.502Z,25.93
2019-02-22T01:35:56.384Z,23.33
2019-02-22T01:38:43.757Z,24.50
2019-02-22T01:41:31.235Z,23.40
2019-02-22T01:44:20.373Z,21.73
2019-02-22T01:47:07.897Z,21.43
2019-02-22T01:49:54.952Z,19.43
2019-02-22T01:52:42.938Z,23.63
2019-02-22T01:55:30.555Z,23.47
2019-02-22T01:58:18.519Z,21.30
2019-02-22T02:01:06.359Z,23.40
2019-02-22T02:03:54.259Z,22.17
2019-02-22T02:06:41.842Z,21.57
2019-02-22T02:09:29.649Z,22.97
2019-02-22T02:12:16.770Z,23.90
2019-02-22T02:15:04.829Z,22.17
2019-02-22T02:17:52.442Z,21.90
2019-02-22T02:20:39.927Z,20.27
2019-02-22T02:23:27.166Z,20.43
2019-02-22T02:26:14.418Z,19.03
2019-02-22T02:29:01.984Z,20.47
2019-02-22T02:31:49.639Z,20.10
2019-02-22T02:34:36.687Z,21.73
2019-02-22T02:37:24.262Z,20.07
2019-02-22T02:40:11.351Z,22.17
2019-02-22T02:42:58.601Z,20.70
2019-02-22T02:45:46.268Z,20.93
2019-02-22T02:48:39.186Z,19.03
2019-02-22T02:55:01.554Z,20.77
2019-02-22T02:57:54.894Z,20.30
2019-02-22T03:00:49.006Z,19.83
2019-02-22T03:04:10.924Z,19.97
2019-02-22T03:07:31.630Z,20.50
2019-02-22T03:10:19.525Z,26.13
2019-02-22T03:13:06.895Z,26.00
2019-02-22T03:15:54.407Z,23.90
2019-02-22T03:18:41.806Z,25.77
2019-02-22T03:21:29.639Z,22.33
2019-02-22T03:24:16.938Z,18.60
2019-02-22T03:27:04.571Z,22.10
2019-02-22T03:29:52.039Z,19.13
2019-02-22T03:32:39.355Z,22.80
2019-02-22T03:35:26.721Z,22.90
2019-02-22T03:38:13.919Z,21.67
2019-02-22T03:41:01.536Z,24.40
2019-02-22T03:43:49.041Z,22.43
2019-02-22T03:46:36.632Z,25.77
2019-02-22T03:49:24.213Z,27.63
2019-02-22T03:52:29.306Z,26.80
2019-02-22T03:55:16.898Z,23.43
2019-02-22T03:58:03.979Z,23.67
2019-02-22T04:00:51.838Z,24.87
2019-02-22T04:03:39.025Z,21.53
2019-02-22T04:06:26.443Z,25.37
2019-02-22T04:09:14.026Z,23.43
2019-02-22T04:12:01.661Z,26.03
2019-02-22T04:14:49.232Z,28.87
2019-02-22T04:17:41.069Z,24.40
2019-02-22T04:20:28.602Z,28.73
2019-02-22T04:23:16.035Z,21.97
2019-02-22T04:26:03.682Z,24.90
2019-02-22T04:28:53.756Z,23.57
2019-02-22T04:31:41.114Z,25.10
2019-02-22T04:34:28.771Z,25.87
2019-02-22T04:37:16.178Z,26.93
2019-02-22T04:40:03.249Z,22.57
2019-02-22T04:42:50.537Z,25.97
2019-02-22T04:45:37.955Z,23.70
2019-02-22T04:48:25.531Z,24.50
2019-02-22T04:51:12.850Z,23.60
2019-02-22T04:53:59.946Z,22.63
2019-02-22T04:56:47.235Z,30.53
2019-02-22T04:59:34.669Z,32.63
2019-02-22T05:02:22.520Z,34.13
2019-02-22T05:05:10.144Z,34.60
2019-02-22T05:07:57.415Z,36.97
2019-02-22T05:10:45.556Z,40.43
2019-02-22T05:13:33.231Z,40.73
2019-02-22T05:16:20.599Z,44.07
2019-02-22T05:19:07.981Z,43.20
2019-02-22T05:21:55.589Z,45.93
2019-02-22T05:24:43.034Z,50.57
2019-02-22T05:27:30.581Z,47.90
2019-02-22T05:30:17.640Z,49.63
2019-02-22T05:33:05.061Z,50.80
2019-02-22T05:35:52.485Z,54.20
2019-02-22T05:38:39.601Z,59.60
2019-02-22T05:41:27.299Z,57.60
2019-02-22T05:44:55.541Z,51.33
2019-02-22T05:47:55.710Z,59.90
2019-02-22T05:50:44.876Z,55.60
2019-02-22T05:53:32.359Z,54.00
2019-02-22T05:56:21.006Z,58.30
2019-02-22T05:59:08.569Z,55.53
2019-02-22T06:01:56.504Z,57.20
2019-02-22T06:04:43.906Z,62.00
2019-02-22T06:07:31.321Z,69.13
2019-02-22T06:10:21.827Z,65.30
2019-02-22T06:13:15.281Z,64.17
2019-02-22T06:16:03.133Z,64.93
2019-02-22T06:18:51.015Z,66.00
2019-02-22T06:21:38.345Z,64.80
2019-02-22T06:24:25.639Z,66.43
2019-02-22T06:27:13.057Z,69.73
2019-02-22T06:30:00.400Z,71.13
2019-02-22T06:32:47.969Z,70.93
2019-02-22T06:35:35.453Z,70.53
2019-02-22T06:38:23.504Z,69.30
2019-02-22T06:41:11.520Z,71.07
2019-02-22T06:43:58.810Z,81.13
2019-02-22T06:46:45.907Z,82.83
2019-02-22T06:49:33.037Z,82.30
2019-02-22T06:52:20.596Z,79.77
2019-02-22T06:55:08.391Z,88.17
2019-02-22T06:57:55.946Z,87.97
2019-02-22T07:00:43.462Z,84.37
2019-02-22T07:03:31.050Z,81.13
2019-02-22T07:06:18.743Z,85.47
2019-02-22T07:09:06.877Z,89.73
2019-02-22T07:12:00.075Z,85.67
2019-02-22T07:14:47.654Z,83.03
2019-02-22T07:17:36.204Z,79.77
2019-02-22T07:20:24.192Z,82.07
2019-02-22T07:23:11.580Z,79.23
2019-02-22T07:25:59.291Z,79.80
2019-02-22T07:28:47.454Z,76.73
2019-02-22T07:31:35.093Z,78.53
2019-02-22T07:34:22.614Z,80.80
2019-02-22T07:37:10.493Z,79.37
2019-02-22T07:39:58.323Z,80.60
2019-02-22T07:42:45.755Z,79.67
2019-02-22T07:45:33.555Z,75.93
2019-02-22T07:48:21.204Z,72.50
2019-02-22T07:51:09.339Z,73.87
2019-02-22T07:53:57.015Z,74.37
2019-02-22T07:56:44.989Z,83.43
2019-02-22T07:59:32.518Z,84.37
2019-02-22T08:02:19.970Z,134.27
2019-02-22T08:05:09.195Z,81.13
2019-02-22T08:07:56.674Z,73.60
2019-02-22T08:10:43.761Z,67.20
2019-02-22T08:13:30.871Z,75.60
2019-02-22T08:16:18.965Z,68.67
2019-02-22T08:19:06.592Z,92.70
2019-02-22T08:21:54.233Z,78.60
2019-02-22T08:24:41.782Z,83.33
2019-02-22T08:27:29.244Z,79.17
2019-02-22T08:30:16.527Z,72.87
2019-02-22T08:33:04.008Z,69.70
2019-02-22T08:35:51.413Z,68.30
2019-02-22T08:38:39.116Z,108.00
2019-02-22T08:41:26.514Z,68.63
2019-02-22T08:44:14.140Z,78.57
2019-02-22T08:47:02.025Z,71.43
2019-02-22T08:49:49.616Z,66.77
2019-02-22T08:52:37.003Z,70.27
2019-02-22T08:55:24.332Z,62.70
2019-02-22T08:58:12.057Z,60.37
2019-02-22T09:00:59.691Z,62.93
2019-02-22T09:03:50.929Z,60.67
2019-02-22T09:06:36.702Z,58.77
2019-02-22T09:09:24.603Z,61.80
2019-02-22T09:12:12.710Z,57.07
2019-02-22T09:14:59.800Z,63.10
2019-02-22T09:17:47.122Z,61.67
2019-02-22T09:20:34.754Z,59.23
2019-02-22T09:23:22.018Z,58.70
2019-02-22T09:26:09.605Z,55.90
2019-02-22T09:28:57.261Z,59.97
2019-02-22T09:31:44.476Z,60.57
2019-02-22T09:34:31.582Z,58.37
2019-02-22T09:37:19.565Z,53.00
2019-02-22T09:40:09.104Z,55.13
2019-02-22T09:42:56.938Z,49.00
2019-02-22T09:45:44.269Z,50.03
2019-02-22T09:48:31.866Z,47.67
2019-02-22T09:51:19.402Z,49.03
2019-02-22T09:54:07.134Z,43.73
2019-02-22T09:56:54.687Z,52.67
2019-02-22T09:59:42.240Z,43.53
2019-02-22T10:02:29.528Z,45.47
2019-02-22T10:05:17.143Z,42.47
2019-02-22T10:08:04.818Z,39.73
2019-02-22T10:10:52.522Z,42.67
2019-02-22T10:13:39.578Z,41.70
2019-02-22T10:16:27.594Z,44.47
2019-02-22T10:19:15.134Z,45.50
2019-02-22T10:22:02.423Z,40.90
2019-02-22T10:24:49.723Z,39.87
2019-02-22T10:27:37.082Z,37.93
2019-02-22T10:30:25.050Z,38.03
2019-02-22T10:33:12.603Z,36.63
2019-02-22T10:35:59.936Z,36.47
2019-02-22T10:38:47.622Z,31.23
2019-02-22T10:41:34.832Z,35.77
2019-02-22T10:44:21.901Z,36.63
2019-02-22T10:47:09.835Z,37.10
2019-02-22T10:49:57.578Z,37.03
2019-02-22T10:52:45.096Z,35.50
2019-02-22T10:55:32.277Z,29.37
2019-02-22T10:58:19.917Z,36.30
2019-02-22T11:01:07.672Z,30.27
2019-02-22T11:03:55.127Z,33.03
2019-02-22T11:06:42.431Z,34.03
2019-02-22T11:09:30.166Z,29.50
2019-02-22T11:12:17.533Z,31.37
2019-02-22T11:15:05.847Z,28.60
2019-02-22T11:17:53.168Z,30.33
2019-02-22T11:20:40.375Z,27.77
2019-02-22T11:23:27.933Z,28.90
2019-02-22T11:26:15.280Z,27.60
2019-02-22T11:29:02.832Z,27.97
2019-02-22T11:31:50.544Z,30.00
2019-02-22T11:34:37.853Z,27.83
2019-02-22T11:37:25.365Z,29.80
2019-02-22T11:40:12.837Z,28.50
2019-02-22T11:43:00.378Z,28.40
2019-02-22T11:45:49.882Z,24.37
2019-02-22T11:48:36.824Z,24.63
2019-02-22T11:51:24.301Z,23.47
2019-02-22T11:54:11.851Z,20.23
2019-02-22T11:56:59.322Z,22.43
2019-02-22T11:59:48.078Z,21.00
2019-02-22T12:02:36.454Z,21.33
2019-02-22T12:05:24.830Z,19.57
2019-02-22T12:08:13.636Z,19.87
2019-02-22T12:11:03.725Z,18.17
2019-02-22T12:13:51.577Z,22.40
2019-02-22T12:16:41.153Z,20.57
2019-02-22T12:19:31.782Z,19.30
2019-02-22T12:22:19.873Z,17.47
2019-02-22T12:25:12.942Z,15.33
2019-02-22T12:28:04.898Z,18.10
2019-02-22T12:30:53.249Z,15.90
2019-02-22T12:33:41.762Z,15.73
2019-02-22T12:36:30.617Z,16.67
2019-02-22T12:39:21.633Z,14.53
2019-02-22T12:42:09.353Z,14.87
2019-02-22T12:45:02.818Z,15.33
2019-02-22T12:47:45.522Z,15.03
2019-02-22T12:50:33.761Z,17.83
2019-02-22T12:53:24.618Z,14.37
2019-02-22T12:56:12.235Z,14.97
2019-02-22T12:59:15.288Z,14.00
2019-02-22T13:02:17.015Z,14.73
2019-02-22T13:05:11.064Z,13.00
2019-02-22T13:07:59.102Z,14.80
2019-02-22T13:10:47.426Z,12.50
2019-02-22T13:13:37.721Z,13.20
2019-02-22T13:16:25.762Z,14.83
2019-02-22T13:19:13.696Z,16.57
2019-02-22T13:22:04.723Z,15.00
2019-02-22T13:24:56.974Z,15.13
2019-02-22T13:27:45.011Z,11.47
2019-02-22T13:30:32.721Z,14.63
2019-02-22T13:33:20.692Z,11.10
2019-02-22T13:36:10.279Z,10.83
2019-02-22T13:39:01.399Z,9.97
2019-02-22T13:41:49.526Z,10.67
2019-02-22T13:44:37.422Z,10.17
2019-02-22T13:47:25.530Z,10.00
2019-02-22T13:50:14.082Z,9.27
2019-02-22T13:53:13.000Z,9.93
2019-02-22T13:56:00.252Z,8.83
2019-02-22T13:58:48.882Z,9.33
2019-02-22T14:01:37.112Z,10.97
2019-02-22T14:04:27.405Z,8.27
2019-02-22T14:07:18.749Z,10.27
2019-02-22T14:10:06.907Z,8.60
2019-02-22T14:12:57.347Z,6.93
2019-02-22T14:15:45.526Z,18.43
2019-02-22T14:18:42.674Z,7.70
2019-02-22T14:21:30.765Z,6.63
2019-02-22T14:24:19.323Z,7.63
2019-02-22T14:27:19.934Z,9.37
2019-02-22T14:30:05.362Z,6.60
2019-02-22T14:32:53.475Z,9.00
2019-02-22T14:35:41.009Z,6.73
2019-02-22T14:38:29.379Z,6.73
2019-02-22T14:41:17.225Z,7.90
2019-02-22T14:44:05.476Z,7.97
2019-02-22T14:46:54.901Z,7.17
2019-02-22T14:49:42.955Z,7.23
2019-02-22T14:52:41.181Z,7.43
2019-02-22T14:55:24.821Z,6.40
2019-02-22T14:58:13.401Z,6.57
2019-02-22T15:01:09.591Z,7.30
2019-02-22T15:04:13.448Z,6.50
2019-02-22T15:06:52.457Z,5.77
2019-02-22T15:09:40.224Z,7.93
2019-02-22T15:12:42.099Z,6.87
2019-02-22T15:16:00.272Z,7.20
2019-02-22T15:18:41.527Z,6.20
2019-02-22T15:21:31.579Z,7.60
2019-02-22T15:24:19.688Z,6.67
2019-02-22T15:27:08.286Z,5.93
2019-02-22T15:29:56.096Z,6.97
2019-02-22T15:32:44.160Z,5.53
2019-02-22T15:35:32.945Z,5.43
2019-02-22T15:38:20.997Z,6.97
2019-02-22T15:41:10.117Z,6.37
2019-02-22T15:47:48.821Z,5.83
2019-02-22T15:50:36.684Z,5.70
2019-02-22T15:53:24.513Z,6.23
2019-02-22T15:56:12.445Z,5.97
2019-02-22T15:59:00.057Z,6.40
2019-02-22T16:01:55.217Z,5.97
2019-02-22T16:04:42.140Z,7.40
2019-02-22T16:07:30.371Z,8.40
2019-02-22T16:10:18.352Z,5.90
2019-02-22T16:13:06.374Z,6.50
2019-02-22T16:15:53.785Z,5.73
2019-02-22T16:18:41.967Z,5.63
2019-02-22T16:21:29.992Z,5.07
2019-02-22T16:24:18.119Z,5.07
2019-02-22T16:27:05.956Z,7.53
2019-02-22T16:33:26.996Z,5.00
2019-02-22T16:36:15.603Z,6.37
2019-02-22T16:39:05.808Z,7.57
2019-02-22T16:41:53.384Z,5.17
2019-02-22T16:44:41.654Z,5.27
2019-02-22T16:47:39.624Z,5.50
2019-02-22T16:50:18.976Z,5.73
2019-02-22T16:53:06.965Z,6.07
2019-02-22T16:55:54.684Z,5.03
2019-02-22T16:58:42.596Z,4.50
2019-02-22T17:01:29.892Z,4.77
2019-02-22T17:04:18.807Z,6.40
2019-02-22T17:07:07.025Z,5.97
2019-02-22T17:09:55.470Z,5.90
2019-02-22T17:12:43.853Z,5.33
2019-02-22T17:15:31.882Z,6.30
2019-02-22T17:18:19.621Z,9.50
2019-02-22T17:21:07.367Z,5.73
2019-02-22T17:24:06.006Z,7.27
2019-02-22T17:26:45.886Z,4.63
2019-02-22T17:29:33.473Z,7.07
2019-02-22T17:32:24.248Z,5.97
2019-02-22T17:35:12.391Z,7.43
2019-02-22T17:38:01.161Z,6.23
2019-02-22T17:40:48.994Z,8.93
2019-02-22T17:43:37.168Z,5.97
2019-02-22T17:46:29.910Z,5.40
2019-02-22T17:49:18.569Z,6.13
2019-02-22T17:52:09.085Z,4.90
2019-02-22T17:54:57.098Z,7.50
2019-02-22T17:57:45.237Z,6.97
2019-02-22T18:00:33.074Z,5.00
2019-02-22T18:03:20.487Z,6.30
2019-02-22T18:06:10.949Z,5.10
2019-02-22T18:09:01.094Z,6.87
2019-02-22T18:11:49.015Z,8.57
2019-02-22T18:14:37.013Z,9.87
2019-02-22T18:17:25.241Z,7.47
2019-02-22T18:20:19.454Z,8.03
2019-02-22T18:23:07.919Z,7.77
2019-02-22T18:25:55.868Z,8.13
2019-02-22T18:28:43.978Z,8.47
2019-02-22T18:31:31.454Z,8.03
2019-02-22T18:34:19.342Z,7.30
2019-02-22T18:37:10.812Z,6.57
2019-02-22T18:39:58.798Z,7.37
2019-02-22T18:42:47.018Z,7.07
2019-02-22T18:45:35.267Z,8.97
2019-02-22T18:48:24.256Z,7.83
2019-02-22T18:51:36.320Z,7.47
2019-02-22T18:54:29.898Z,7.67
2019-02-22T19:01:37.113Z,8.33
2019-02-22T19:08:17.584Z,8.50
2019-02-22T19:11:16.491Z,9.47
2019-02-22T19:14:34.384Z,11.03
2019-02-22T19:17:41.018Z,8.50
2019-02-22T19:21:11.480Z,7.73
2019-02-22T19:24:25.065Z,8.07
2019-02-22T19:27:41.483Z,8.60
2019-02-22T19:30:52.462Z,7.27
2019-02-22T19:33:49.927Z,8.93
2019-02-22T19:40:16.693Z,16.67
2019-02-22T19:43:50.433Z,17.93
2019-02-22T19:47:26.671Z,11.40
2019-02-22T19:54:23.666Z,10.27
2019-02-22T19:57:55.006Z,13.90
2019-02-22T20:01:14.490Z,14.47
2019-02-22T20:04:25.463Z,12.00
2019-02-22T20:07:16.908Z,10.77
2019-02-22T20:10:36.169Z,11.83
2019-02-22T20:17:05.277Z,11.17
2019-02-22T20:20:18.298Z,10.43
2019-02-22T20:23:26.970Z,10.77
2019-02-22T20:26:29.500Z,12.20
2019-02-22T20:29:42.021Z,12.20
2019-02-22T20:32:40.299Z,13.77
2019-02-22T20:35:32.137Z,16.00
2019-02-22T20:41:41.798Z,15.40
2019-02-22T20:44:39.066Z,15.53
2019-02-22T20:47:34.951Z,12.47
2019-02-22T20:50:49.446Z,13.20
2019-02-22T20:57:26.957Z,15.03
2019-02-22T21:00:25.842Z,13.83
2019-02-22T21:07:01.040Z,15.93
2019-02-22T21:10:22.951Z,17.40
2019-02-22T21:13:11.057Z,14.60
2019-02-22T21:16:04.554Z,18.90
2019-02-22T21:18:51.863Z,17.00
2019-02-22T21:21:39.295Z,15.67
2019-02-22T21:24:26.633Z,16.20
2019-02-22T21:27:15.940Z,16.80
2019-02-22T21:30:06.663Z,17.23
2019-02-22T21:32:55.393Z,17.87
2019-02-22T21:35:43.222Z,19.93
2019-02-22T21:38:30.807Z,17.67
2019-02-22T21:41:18.533Z,15.07
2019-02-22T21:44:06.117Z,19.13
2019-02-22T21:46:53.269Z,17.00
2019-02-22T21:49:41.006Z,14.67
2019-02-22T21:52:28.605Z,13.13
2019-02-22T21:55:16.072Z,17.97
2019-02-22T21:58:04.590Z,17.00
2019-02-22T22:00:55.696Z,13.67
2019-02-22T22:03:43.190Z,14.80
2019-02-22T22:06:30.600Z,16.70
2019-02-22T22:09:25.270Z,16.23
2019-02-22T22:12:12.897Z,15.50
2019-02-22T22:15:00.219Z,16.23
2019-02-22T22:17:54.114Z,16.97
2019-02-22T22:20:39.964Z,20.00
2019-02-22T22:23:27.417Z,17.13
2019-02-22T22:26:14.960Z,15.80
2019-02-22T22:29:02.067Z,15.00
2019-02-22T22:31:49.572Z,15.93
2019-02-22T22:34:37.506Z,15.57
2019-02-22T22:37:24.862Z,14.20
2019-02-22T22:40:12.279Z,15.93
2019-02-22T22:42:59.935Z,17.07
2019-02-22T22:45:47.375Z,15.03
2019-02-22T22:48:34.743Z,15.43
2019-02-22T22:51:22.357Z,15.17
2019-02-22T22:54:09.729Z,15.13
2019-02-22T22:56:57.393Z,16.53
2019-02-22T22:59:44.769Z,14.23
2019-02-22T23:02:32.540Z,15.07
2019-02-22T23:05:20.025Z,15.30
2019-02-22T23:08:07.371Z,15.60
2019-02-22T23:10:55.490Z,16.17
2019-02-22T23:13:43.261Z,17.27
2019-02-22T23:16:31.147Z,14.20
2019-02-22T23:19:18.530Z,16.97
2019-02-22T23:22:06.187Z,15.07
2019-02-22T23:24:53.574Z,16.47
2019-02-22T23:27:41.566Z,12.60
2019-02-22T23:30:29.491Z,14.70
2019-02-22T23:33:16.845Z,16.50
2019-02-22T23:36:04.948Z,16.07
2019-02-22T23:38:52.611Z,16.70
2019-02-22T23:41:39.917Z,15.37
2019-02-22T23:44:27.031Z,16.80
2019-02-22T23:47:14.268Z,17.57
2019-02-22T23:50:01.463Z,15.80
2019-02-22T23:52:49.159Z,14.20
2019-02-22T23:55:36.545Z,15.20
2019-02-22T23:58:23.641Z,16.83
